Time;durP1;ratioP1;P1;durP2;ratioP2;P2;SDS_P1;SDS_P2;PMS_P1;PMS_P2;Temp;Humidity;BMP_temperature;BMP_pressure;BME280_temperature;BME280_humidity;BME280_pressure;Samples;Min_cycle;Max_cycle;Signal;HPM_P1;HPM_P2
2021/03/23 00:01:25;;;;;;;6.97;4.43;;;;;;;;;;5073308;28;20021;-57
2021/03/23 00:03:52;;;;;;;11.38;4.88;;;;;;;;;;5073098;28;20052;-58
2021/03/23 00:06:21;;;;;;;8.48;5.07;;;;;;;;;;5072674;28;20020;-58
2021/03/23 00:08:49;;;;;;;6.68;4.20;;;;;;;;;;5073138;28;20104;-57
2021/03/23 00:11:18;;;;;;;6.18;4.65;;;;;;;;;;5073047;28;20024;-57
2021/03/23 00:13:46;;;;;;;8.23;5.32;;;;;;;;;;5072909;28;20036;-58
2021/03/23 00:16:14;;;;;;;6.65;4.88;;;;;;;;;;5073047;28;20485;-58
2021/03/23 00:18:41;;;;;;;9.60;5.00;;;;;;;;;;5072903;28;20032;-57
2021/03/23 00:21:09;;;;;;;7.10;4.65;;;;;;;;;;5072904;28;20418;-58
2021/03/23 00:23:37;;;;;;;10.53;4.70;;;;;;;;;;5073025;28;20487;-58
2021/03/23 00:26:04;;;;;;;14.70;5.35;;;;;;;;;;5072893;28;20024;-57
2021/03/23 00:28:31;;;;;;;9.33;4.63;;;;;;;;;;5072828;28;20028;-57
2021/03/23 00:30:57;;;;;;;16.87;5.17;;;;;;;;;;5072770;28;20054;-57
2021/03/23 00:33:25;;;;;;;7.80;4.57;;;;;;;;;;5072764;28;20407;-57
2021/03/23 00:36:01;;;;;;;17.93;6.03;;;;;;;;;;5072527;28;20045;-57
2021/03/23 00:38:35;;;;;;;23.17;6.73;;;;;;;;;;5073591;27;20399;-57
2021/03/23 00:41:02;;;;;;;10.02;5.03;;;;;;;;;;5072587;28;20037;-57
2021/03/23 00:43:29;;;;;;;9.93;5.80;;;;;;;;;;5072618;28;20029;-57
2021/03/23 00:45:55;;;;;;;17.23;6.20;;;;;;;;;;5072960;28;20170;-57
2021/03/23 00:48:22;;;;;;;26.17;11.70;;;;;;;;;;5072580;28;20017;-57
2021/03/23 00:50:49;;;;;;;18.83;8.53;;;;;;;;;;5072668;28;20033;-57
2021/03/23 00:53:16;;;;;;;16.53;7.07;;;;;;;;;;5072427;28;20036;-57
2021/03/23 00:55:43;;;;;;;15.90;6.27;;;;;;;;;;5072380;28;20375;-57
2021/03/23 00:58:10;;;;;;;14.63;4.87;;;;;;;;;;5072388;28;20020;-57
2021/03/23 01:00:37;;;;;;;10.90;4.67;;;;;;;;;;5072331;28;20096;-57
2021/03/23 01:03:04;;;;;;;7.23;4.47;;;;;;;;;;5072171;28;20025;-57
2021/03/23 01:05:32;;;;;;;10.07;4.77;;;;;;;;;;5072357;28;20052;-57
2021/03/23 01:07:59;;;;;;;13.77;4.83;;;;;;;;;;5072322;28;20025;-57
2021/03/23 01:10:27;;;;;;;15.53;4.67;;;;;;;;;;5072839;28;20025;-57
2021/03/23 01:12:54;;;;;;;6.70;4.30;;;;;;;;;;5071988;28;20417;-57
2021/03/23 01:15:23;;;;;;;12.83;4.17;;;;;;;;;;5072019;28;20043;-57
2021/03/23 01:17:50;;;;;;;11.83;4.57;;;;;;;;;;5076055;28;20029;-57
2021/03/23 01:20:18;;;;;;;13.93;5.00;;;;;;;;;;5075954;28;20111;-57
2021/03/23 01:22:45;;;;;;;11.80;4.50;;;;;;;;;;5075887;28;20029;-57
2021/03/23 01:25:13;;;;;;;6.97;4.10;;;;;;;;;;5075837;28;20024;-57
2021/03/23 01:27:40;;;;;;;6.73;4.13;;;;;;;;;;5076437;28;20028;-57
2021/03/23 01:30:07;;;;;;;6.37;3.60;;;;;;;;;;5075972;28;20578;-57
2021/03/23 01:32:34;;;;;;;7.63;4.50;;;;;;;;;;5075774;28;20036;-57
2021/03/23 01:35:01;;;;;;;8.07;4.60;;;;;;;;;;5075909;28;20037;-57
2021/03/23 01:37:28;;;;;;;7.23;4.17;;;;;;;;;;5057946;28;20055;-57
2021/03/23 01:40:01;;;;;;;11.30;4.97;;;;;;;;;;5076932;27;20119;-57
2021/03/23 01:42:46;;;;;;;9.03;4.80;;;;;;;;;;5075769;28;20037;-57
2021/03/23 01:45:13;;;;;;;;;;;;;;;;;;5076024;28;20303;-57
2021/03/23 01:47:39;;;;;;;8.07;4.77;;;;;;;;;;5075794;28;19908;-57
2021/03/23 01:50:06;;;;;;;9.97;4.87;;;;;;;;;;5075580;28;20387;-57
2021/03/23 01:52:33;;;;;;;6.70;4.60;;;;;;;;;;5075513;28;20020;-57
2021/03/23 01:55:02;;;;;;;7.40;4.90;;;;;;;;;;5075539;28;20032;-57
2021/03/23 01:57:29;;;;;;;7.77;4.20;;;;;;;;;;5075593;28;20021;-57
2021/03/23 01:59:57;;;;;;;8.33;4.07;;;;;;;;;;5075338;28;20027;-56
2021/03/23 02:02:26;;;;;;;11.73;4.47;;;;;;;;;;5075473;28;20468;-56
2021/03/23 02:04:53;;;;;;;11.33;4.50;;;;;;;;;;5057434;28;20487;-56
2021/03/23 02:07:20;;;;;;;13.07;5.17;;;;;;;;;;5075252;28;20074;-56
2021/03/23 02:09:47;;;;;;;8.80;4.57;;;;;;;;;;5075408;28;20035;-56
2021/03/23 02:12:16;;;;;;;10.87;4.20;;;;;;;;;;5075176;28;20100;-56
2021/03/23 02:14:44;;;;;;;10.13;4.20;;;;;;;;;;5075195;28;20071;-56
2021/03/23 02:17:14;;;;;;;12.90;4.80;;;;;;;;;;5075332;28;20032;-56
2021/03/23 02:19:41;;;;;;;12.47;4.53;;;;;;;;;;5075181;28;20513;-56
2021/03/23 02:22:24;;;;;;;15.43;4.90;;;;;;;;;;5075463;28;20112;-56
2021/03/23 02:24:51;;;;;;;11.90;5.23;;;;;;;;;;5074892;28;20357;-56
2021/03/23 02:27:18;;;;;;;7.57;4.73;;;;;;;;;;5074297;28;20103;-56
2021/03/23 02:29:45;;;;;;;13.30;4.93;;;;;;;;;;5075011;28;20031;-56
2021/03/23 02:32:11;;;;;;;8.37;4.80;;;;;;;;;;5074911;28;20024;-56
2021/03/23 02:34:38;;;;;;;10.93;4.97;;;;;;;;;;5074690;28;20085;-56
2021/03/23 02:37:05;;;;;;;10.53;4.87;;;;;;;;;;5074757;28;20563;-56
2021/03/23 02:39:33;;;;;;;12.20;4.73;;;;;;;;;;5075690;27;20106;-56
2021/03/23 02:42:00;;;;;;;7.23;4.23;;;;;;;;;;5056790;28;20461;-56
2021/03/23 02:44:28;;;;;;;10.77;5.17;;;;;;;;;;5074607;28;20016;-56
2021/03/23 02:46:55;;;;;;;7.27;4.27;;;;;;;;;;5074728;28;20033;-56
2021/03/23 02:49:22;;;;;;;11.37;4.43;;;;;;;;;;5074419;28;20502;-56
2021/03/23 02:51:50;;;;;;;8.80;4.20;;;;;;;;;;5074696;28;20029;-56
2021/03/23 02:54:17;;;;;;;8.80;5.00;;;;;;;;;;5074420;28;20090;-56
2021/03/23 02:56:43;;;;;;;7.03;4.30;;;;;;;;;;5074447;28;20166;-56
2021/03/23 02:59:10;;;;;;;9.50;5.00;;;;;;;;;;5074259;28;20029;-56
2021/03/23 03:01:37;;;;;;;13.57;5.17;;;;;;;;;;5074318;28;20027;-56
2021/03/23 03:04:05;;;;;;;9.80;4.80;;;;;;;;;;5074114;28;20111;-56
2021/03/23 03:06:32;;;;;;;7.53;4.03;;;;;;;;;;5074330;28;20200;-56
2021/03/23 03:08:59;;;;;;;19.77;4.70;;;;;;;;;;5074001;28;20028;-56
2021/03/23 03:11:26;;;;;;;12.23;5.67;;;;;;;;;;5074220;28;20025;-56
2021/03/23 03:13:53;;;;;;;16.90;5.60;;;;;;;;;;5074039;28;20466;-56
2021/03/23 03:16:20;;;;;;;7.27;4.67;;;;;;;;;;5074024;28;20035;-56
2021/03/23 03:18:46;;;;;;;10.20;5.43;;;;;;;;;;5074034;28;20025;-56
2021/03/23 03:21:13;;;;;;;6.93;4.43;;;;;;;;;;5073793;28;20025;-56
2021/03/23 03:23:40;;;;;;;10.87;4.77;;;;;;;;;;5073888;28;20032;-56
2021/03/23 03:26:07;;;;;;;11.20;4.53;;;;;;;;;;5073814;28;20379;-56
2021/03/23 03:28:35;;;;;;;8.07;5.07;;;;;;;;;;5073833;28;20021;-56
2021/03/23 03:31:02;;;;;;;7.30;4.80;;;;;;;;;;5073933;28;20371;-56
2021/03/23 03:33:29;;;;;;;11.27;4.50;;;;;;;;;;5073735;28;20510;-56
2021/03/23 03:35:56;;;;;;;16.60;5.00;;;;;;;;;;5073807;28;20027;-56
2021/03/23 03:38:24;;;;;;;13.60;4.63;;;;;;;;;;5074480;27;20127;-56
2021/03/23 03:40:54;;;;;;;6.97;4.53;;;;;;;;;;5072523;28;20029;-56
2021/03/23 03:43:22;;;;;;;8.83;4.60;;;;;;;;;;5073590;28;20024;-56
2021/03/23 03:45:49;;;;;;;11.73;4.80;;;;;;;;;;5073492;28;20020;-56
2021/03/23 03:48:16;;;;;;;11.33;5.03;;;;;;;;;;5073354;28;20483;-56
2021/03/23 03:50:43;;;;;;;7.57;4.97;;;;;;;;;;5073341;28;20055;-56
2021/03/23 03:53:11;;;;;;;12.70;4.90;;;;;;;;;;5073185;28;20042;-56
2021/03/23 03:55:38;;;;;;;7.57;4.20;;;;;;;;;;5073524;28;20360;-56
2021/03/23 03:58:05;;;;;;;9.33;4.33;;;;;;;;;;5072989;28;20029;-56
2021/03/23 04:00:33;;;;;;;11.47;4.90;;;;;;;;;;5073197;28;20024;-56
2021/03/23 04:03:01;;;;;;;8.00;4.73;;;;;;;;;;5073090;28;20035;-56
2021/03/23 04:05:32;;;;;;;10.17;5.03;;;;;;;;;;5073009;28;20028;-56
2021/03/23 04:07:59;;;;;;;11.33;4.60;;;;;;;;;;5072963;28;20016;-56
2021/03/23 04:10:26;;;;;;;8.23;4.93;;;;;;;;;;5072942;28;20024;-56
2021/03/23 04:12:53;;;;;;;9.77;5.00;;;;;;;;;;5072970;28;20028;-56
2021/03/23 04:15:23;;;;;;;11.47;6.60;;;;;;;;;;5073021;28;20102;-56
2021/03/23 04:17:49;;;;;;;7.90;4.97;;;;;;;;;;5073136;28;20025;-57
2021/03/23 04:20:18;;;;;;;7.10;4.93;;;;;;;;;;5072795;28;20036;-56
2021/03/23 04:22:45;;;;;;;10.90;5.23;;;;;;;;;;5073107;28;20414;-56
2021/03/23 04:25:12;;;;;;;11.13;5.00;;;;;;;;;;5072829;28;20024;-56
2021/03/23 04:27:39;;;;;;;11.47;5.30;;;;;;;;;;5072766;28;20024;-56
2021/03/23 04:30:07;;;;;;;12.43;6.07;;;;;;;;;;5072777;28;20033;-56
2021/03/23 04:32:34;;;;;;;12.60;5.40;;;;;;;;;;5072810;28;20086;-56
2021/03/23 04:35:02;;;;;;;11.23;5.03;;;;;;;;;;5072923;28;20036;-57
2021/03/23 04:37:28;;;;;;;8.10;5.07;;;;;;;;;;5072583;28;20031;-56
2021/03/23 04:39:55;;;;;;;9.63;4.77;;;;;;;;;;5073405;28;20144;-56
2021/03/23 04:42:22;;;;;;;8.90;4.63;;;;;;;;;;5072451;28;20051;-57
2021/03/23 04:44:49;;;;;;;6.67;4.10;;;;;;;;;;5072728;28;20062;-56
2021/03/23 04:47:15;;;;;;;8.77;4.77;;;;;;;;;;5072653;28;20033;-56
2021/03/23 04:49:42;;;;;;;8.63;4.97;;;;;;;;;;5072693;28;20048;-56
2021/03/23 04:52:09;;;;;;;10.20;4.73;;;;;;;;;;5075872;28;20028;-56
2021/03/23 04:54:36;;;;;;;21.07;4.57;;;;;;;;;;5076639;28;20040;-56
2021/03/23 04:57:03;;;;;;;13.70;5.03;;;;;;;;;;5076786;28;20140;-56
2021/03/23 04:59:30;;;;;;;11.27;4.90;;;;;;;;;;5076775;28;20040;-56
2021/03/23 05:01:56;;;;;;;8.33;4.10;;;;;;;;;;5076607;28;20017;-55
2021/03/23 05:04:23;;;;;;;8.70;5.13;;;;;;;;;;5076502;28;20029;-55
2021/03/23 05:06:50;;;;;;;9.47;4.30;;;;;;;;;;5076547;28;20036;-55
2021/03/23 05:09:17;;;;;;;7.90;4.93;;;;;;;;;;5076462;28;20028;-56
2021/03/23 05:11:44;;;;;;;8.33;3.90;;;;;;;;;;5076426;28;20056;-56
2021/03/23 05:14:11;;;;;;;9.10;5.13;;;;;;;;;;5076292;28;20390;-55
2021/03/23 05:16:38;;;;;;;8.27;4.63;;;;;;;;;;5076396;28;20115;-56
2021/03/23 05:19:05;;;;;;;16.07;5.07;;;;;;;;;;5076257;28;20028;-56
2021/03/23 05:21:32;;;;;;;8.83;4.87;;;;;;;;;;5076165;28;20112;-56
2021/03/23 05:24:00;;;;;;;6.97;4.77;;;;;;;;;;5076165;28;20379;-56
2021/03/23 05:26:27;;;;;;;15.60;5.13;;;;;;;;;;5076165;28;20025;-56
2021/03/23 05:28:55;;;;;;;9.30;4.67;;;;;;;;;;5075847;28;20025;-56
2021/03/23 05:31:22;;;;;;;6.53;4.63;;;;;;;;;;5075933;28;20016;-55
2021/03/23 05:33:53;;;;;;;11.60;4.63;;;;;;;;;;5075941;28;20029;-56
2021/03/23 05:36:20;;;;;;;11.63;5.10;;;;;;;;;;5076044;28;20021;-55
2021/03/23 05:38:47;;;;;;;9.93;4.73;;;;;;;;;;5076754;27;20110;-55
2021/03/23 05:41:19;;;;;;;9.67;5.27;;;;;;;;;;5075797;28;20031;-56
2021/03/23 05:43:55;;;;;;;7.77;4.80;;;;;;;;;;5075810;28;20028;-55
2021/03/23 05:46:33;;;;;;;7.27;5.23;;;;;;;;;;5075661;28;20028;-55
2021/03/23 05:49:03;;;;;;;10.07;5.50;;;;;;;;;;5075766;28;20020;-57
2021/03/23 05:51:33;;;;;;;12.27;5.50;;;;;;;;;;5075618;28;20032;-57
2021/03/23 05:54:05;;;;;;;7.90;4.83;;;;;;;;;;5075839;28;20159;-57
2021/03/23 05:56:34;;;;;;;6.97;4.80;;;;;;;;;;5075494;28;20380;-57
2021/03/23 05:59:19;;;;;;;8.57;4.00;;;;;;;;;;5075423;28;20563;-57
2021/03/23 06:02:02;;;;;;;7.72;3.90;;;;;;;;;;5075128;28;20060;-57
2021/03/23 06:04:38;;;;;;;5.77;3.60;;;;;;;;;;5074975;28;20027;-57
2021/03/23 06:07:06;;;;;;;7.47;3.80;;;;;;;;;;5075434;28;20379;-57
2021/03/23 06:09:35;;;;;;;7.83;3.80;;;;;;;;;;5075176;28;20032;-57
2021/03/23 06:12:15;;;;;;;7.53;4.00;;;;;;;;;;5075284;28;20059;-55
2021/03/23 06:14:46;;;;;;;8.37;4.37;;;;;;;;;;5075159;28;20097;-57
2021/03/23 06:17:35;;;;;;;11.67;4.27;;;;;;;;;;5075119;28;20028;-57
2021/03/23 06:20:21;;;;;;;6.40;3.90;;;;;;;;;;5075028;28;20021;-57
2021/03/23 06:22:57;;;;;;;9.43;4.00;;;;;;;;;;5075089;28;20024;-57
2021/03/23 06:25:30;;;;;;;7.33;4.07;;;;;;;;;;5075012;28;20494;-57
2021/03/23 06:27:59;;;;;;;4.80;3.53;;;;;;;;;;5075063;28;20025;-57
2021/03/23 06:30:26;;;;;;;7.77;3.93;;;;;;;;;;5075012;28;20035;-57
2021/03/23 06:32:54;;;;;;;6.70;4.10;;;;;;;;;;5074852;28;20039;-57
2021/03/23 06:35:28;;;;;;;8.77;3.90;;;;;;;;;;5074959;28;20043;-56
2021/03/23 06:37:56;;;;;;;5.90;3.75;;;;;;;;;;5075001;28;20032;-57
2021/03/23 06:40:24;;;;;;;7.83;4.37;;;;;;;;;;5075704;27;20445;-55
2021/03/23 06:42:56;;;;;;;6.33;3.63;;;;;;;;;;5074804;28;20032;-56
2021/03/23 06:45:37;;;;;;;6.93;4.27;;;;;;;;;;5074711;28;20086;-57
2021/03/23 06:48:24;;;;;;;9.17;4.53;;;;;;;;;;5074876;28;20027;-57
2021/03/23 06:50:51;;;;;;;5.40;3.73;;;;;;;;;;5074572;28;20162;-56
2021/03/23 06:53:21;;;;;;;5.30;3.40;;;;;;;;;;5074438;28;20047;-56
2021/03/23 06:55:49;;;;;;;6.87;3.57;;;;;;;;;;5074400;28;20422;-57
2021/03/23 06:58:22;;;;;;;8.40;3.63;;;;;;;;;;5074409;28;20024;-57
2021/03/23 07:01:09;;;;;;;9.23;3.83;;;;;;;;;;5074383;28;20021;-57
2021/03/23 07:03:36;;;;;;;9.17;3.80;;;;;;;;;;5074381;28;20027;-57
2021/03/23 07:06:16;;;;;;;5.33;3.80;;;;;;;;;;5056564;28;20499;-57
2021/03/23 07:08:43;;;;;;;9.10;4.37;;;;;;;;;;5074165;28;20032;-57
2021/03/23 07:11:10;;;;;;;5.80;3.80;;;;;;;;;;5074141;28;20360;-57
2021/03/23 07:13:39;;;;;;;7.83;4.00;;;;;;;;;;5073936;28;20036;-57
2021/03/23 07:16:06;;;;;;;6.10;4.13;;;;;;;;;;5074022;28;20407;-57
2021/03/23 07:18:36;;;;;;;8.63;4.60;;;;;;;;;;5073967;28;20387;-57
2021/03/23 07:21:04;;;;;;;7.27;4.00;;;;;;;;;;5073989;28;20545;-57
2021/03/23 07:23:40;;;;;;;8.00;4.00;;;;;;;;;;5073923;28;20025;-57
2021/03/23 07:26:15;;;;;;;7.23;3.83;;;;;;;;;;5073924;28;20020;-57
2021/03/23 07:28:43;;;;;;;7.73;3.30;;;;;;;;;;5073584;28;20073;-57
2021/03/23 07:31:16;;;;;;;8.53;3.90;;;;;;;;;;5073770;28;20035;-57
2021/03/23 07:34:01;;;;;;;5.53;3.83;;;;;;;;;;5073683;28;20092;-57
2021/03/23 07:36:48;;;;;;;6.65;3.78;;;;;;;;;;5073666;28;20032;-57
2021/03/23 07:39:20;;;;;;;7.10;3.53;;;;;;;;;;5074906;27;20044;-57
2021/03/23 07:41:56;;;;;;;7.23;3.90;;;;;;;;;;5073712;28;20404;-57
2021/03/23 07:44:41;;;;;;;6.90;3.57;;;;;;;;;;5073527;28;20523;-57
2021/03/23 07:47:26;;;;;;;13.73;4.55;;;;;;;;;;5073590;28;20031;-57
2021/03/23 07:50:05;;;;;;;5.43;3.47;;;;;;;;;;5073474;28;20036;-57
2021/03/23 07:52:44;;;;;;;6.10;4.10;;;;;;;;;;5073377;28;20028;-57
2021/03/23 07:55:21;;;;;;;10.63;3.80;;;;;;;;;;5073636;28;20047;-57
2021/03/23 07:58:00;;;;;;;6.37;4.17;;;;;;;;;;5073208;28;20021;-57
2021/03/23 08:00:34;;;;;;;8.90;4.50;;;;;;;;;;5073251;28;20104;-57
2021/03/23 08:03:19;;;;;;;10.37;3.80;;;;;;;;;;5073079;28;20074;-57
2021/03/23 08:06:05;;;;;;;5.22;3.50;;;;;;;;;;5073245;28;20202;-57
2021/03/23 08:08:45;;;;;;;5.50;3.80;;;;;;;;;;5073037;28;20032;-57
2021/03/23 08:11:12;;;;;;;6.27;3.60;;;;;;;;;;5073084;28;20028;-57
2021/03/23 08:13:57;;;;;;;8.63;4.13;;;;;;;;;;5073052;28;20036;-57
2021/03/23 08:16:33;;;;;;;6.25;3.53;;;;;;;;;;5073073;28;20082;-57
2021/03/23 08:19:03;;;;;;;7.53;4.43;;;;;;;;;;5072957;28;20036;-57
2021/03/23 08:21:30;;;;;;;6.83;4.13;;;;;;;;;;5073067;28;20024;-57
2021/03/23 08:23:56;;;;;;;6.03;3.97;;;;;;;;;;5072982;28;20093;-57
2021/03/23 08:26:35;;;;;;;7.67;4.80;;;;;;;;;;5072283;28;20028;-57
2021/03/23 08:29:21;;;;;;;8.20;4.47;;;;;;;;;;5072830;28;20112;-57
2021/03/23 08:31:50;;;;;;;9.15;4.32;;;;;;;;;;5055023;28;20536;-56
2021/03/23 08:34:35;;;;;;;8.07;4.13;;;;;;;;;;5072746;28;20047;-57
2021/03/23 08:37:20;;;;;;;7.93;4.70;;;;;;;;;;5072776;28;20037;-57
2021/03/23 08:40:06;;;;;;;4.60;3.47;;;;;;;;;;5073057;28;20120;-57
2021/03/23 08:42:33;;;;;;;8.45;4.40;;;;;;;;;;5072722;28;20482;-57
2021/03/23 08:45:06;;;;;;;7.20;3.97;;;;;;;;;;5072796;28;20028;-57
2021/03/23 08:47:34;;;;;;;7.10;4.50;;;;;;;;;;5072641;28;20062;-56
2021/03/23 08:50:16;;;;;;;8.67;4.10;;;;;;;;;;5072703;28;20095;-56
2021/03/23 08:52:44;;;;;;;10.13;4.77;;;;;;;;;;5073238;28;20027;-57
2021/03/23 08:55:34;;;;;;;13.90;4.90;;;;;;;;;;5072518;28;20024;-57
2021/03/23 08:58:08;;;;;;;6.73;3.83;;;;;;;;;;5072591;28;20025;-57
2021/03/23 09:00:38;;;;;;;10.35;4.45;;;;;;;;;;5072809;28;20108;-57
2021/03/23 09:03:11;;;;;;;7.67;4.07;;;;;;;;;;5072401;28;20048;-57
2021/03/23 09:05:40;;;;;;;5.60;3.97;;;;;;;;;;5072572;28;20090;-57
2021/03/23 09:08:22;;;;;;;7.17;4.10;;;;;;;;;;5072532;28;20052;-57
2021/03/23 09:10:49;;;;;;;8.10;4.27;;;;;;;;;;5072466;28;20048;-56
2021/03/23 09:13:24;;;;;;;6.93;4.60;;;;;;;;;;5072280;28;20454;-56
2021/03/23 09:15:53;;;;;;;7.47;4.80;;;;;;;;;;5072569;28;20024;-57
2021/03/23 09:18:20;;;;;;;5.83;3.77;;;;;;;;;;5072288;28;20021;-57
2021/03/23 09:20:47;;;;;;;7.83;4.73;;;;;;;;;;5072349;28;20036;-57
2021/03/23 09:23:21;;;;;;;7.50;5.00;;;;;;;;;;5072290;28;20100;-56
2021/03/23 09:25:50;;;;;;;6.57;4.33;;;;;;;;;;5072413;28;20394;-57
2021/03/23 09:28:39;;;;;;;6.23;4.60;;;;;;;;;;5072259;28;20028;-56
2021/03/23 09:31:07;;;;;;;6.83;4.63;;;;;;;;;;5072293;28;20124;-57
2021/03/23 09:33:37;;;;;;;10.77;5.93;;;;;;;;;;5072070;28;20480;-57
2021/03/23 09:36:13;;;;;;;10.63;5.50;;;;;;;;;;5072569;28;20056;-57
2021/03/23 09:38:42;;;;;;;7.90;4.57;;;;;;;;;;5057996;28;20028;-57
2021/03/23 09:41:26;;;;;;;7.70;4.50;;;;;;;;;;5075563;28;20140;-57
2021/03/23 09:43:54;;;;;;;11.90;4.95;;;;;;;;;;5075853;28;20032;-57
2021/03/23 09:46:24;;;;;;;6.87;4.70;;;;;;;;;;5075889;28;20024;-56
2021/03/23 09:49:11;;;;;;;6.43;4.50;;;;;;;;;;5075689;28;20027;-56
2021/03/23 09:51:41;;;;;;;7.00;4.60;;;;;;;;;;5075832;28;20024;-56
2021/03/23 09:54:22;;;;;;;7.60;4.63;;;;;;;;;;5075615;28;20039;-56
2021/03/23 09:56:50;;;;;;;6.13;4.23;;;;;;;;;;5075618;28;20028;-57
2021/03/23 09:59:20;;;;;;;6.07;4.43;;;;;;;;;;5075668;28;20490;-57
2021/03/23 10:02:19;;;;;;;6.90;5.07;;;;;;;;;;5075624;28;20490;-57
2021/03/23 10:04:47;;;;;;;9.23;4.67;;;;;;;;;;5075425;28;20036;-56
2021/03/23 10:07:36;;;;;;;8.03;4.63;;;;;;;;;;5075293;28;20116;-57
2021/03/23 10:10:10;;;;;;;8.53;4.33;;;;;;;;;;5075505;28;20325;-56
2021/03/23 10:12:37;;;;;;;8.27;5.00;;;;;;;;;;5075425;28;20262;-56
2021/03/23 10:15:24;;;;;;;7.40;4.77;;;;;;;;;;5075225;28;20391;-56
2021/03/23 10:17:51;;;;;;;9.40;5.43;;;;;;;;;;5075327;28;20258;-57
2021/03/23 10:20:20;;;;;;;8.97;5.20;;;;;;;;;;5075441;28;20123;-56
2021/03/23 10:22:55;;;;;;;9.60;4.90;;;;;;;;;;5075204;28;20107;-57
2021/03/23 10:25:23;;;;;;;8.68;5.30;;;;;;;;;;5075214;28;20048;-56
2021/03/23 10:27:50;;;;;;;7.40;4.93;;;;;;;;;;5074984;28;20479;-56
2021/03/23 10:30:19;;;;;;;7.37;5.00;;;;;;;;;;5074936;28;20040;-56
2021/03/23 10:32:51;;;;;;;6.13;4.23;;;;;;;;;;5074854;28;20604;-56
2021/03/23 10:35:23;;;;;;;7.53;4.70;;;;;;;;;;5074924;28;20269;-57
2021/03/23 10:37:54;;;;;;;10.63;5.00;;;;;;;;;;5074796;28;20414;-56
2021/03/23 10:40:30;;;;;;;9.63;4.73;;;;;;;;;;5076033;28;20297;-56
2021/03/23 10:42:58;;;;;;;11.97;5.13;;;;;;;;;;5074660;28;20286;-56
2021/03/23 10:45:30;;;;;;;6.47;4.63;;;;;;;;;;5074789;28;20295;-56
2021/03/23 10:48:08;;;;;;;6.73;4.97;;;;;;;;;;5074452;28;20666;-56
2021/03/23 10:50:35;;;;;;;7.20;4.50;;;;;;;;;;5074374;28;20748;-56
2021/03/23 10:53:13;;;;;;;11.03;5.17;;;;;;;;;;5074514;28;20272;-56
2021/03/23 10:55:44;;;;;;;7.97;6.03;;;;;;;;;;5074545;28;20265;-56
2021/03/23 10:58:18;;;;;;;7.93;5.00;;;;;;;;;;5074358;28;20039;-56
2021/03/23 11:00:48;;;;;;;6.57;4.60;;;;;;;;;;5074431;28;20246;-56
2021/03/23 11:03:28;;;;;;;8.07;4.57;;;;;;;;;;5074369;28;20032;-56
2021/03/23 11:05:55;;;;;;;7.97;4.40;;;;;;;;;;5074379;28;20265;-56
2021/03/23 11:08:22;;;;;;;9.20;4.70;;;;;;;;;;5074189;28;20253;-56
2021/03/23 11:10:50;;;;;;;7.13;4.77;;;;;;;;;;5074258;28;20257;-56
2021/03/23 11:13:18;;;;;;;7.23;4.87;;;;;;;;;;5073952;28;20354;-56
2021/03/23 11:15:47;;;;;;;10.10;4.93;;;;;;;;;;5074129;28;20319;-56
2021/03/23 11:18:33;;;;;;;7.87;5.60;;;;;;;;;;5074270;28;20249;-56
2021/03/23 11:21:02;;;;;;;15.13;5.50;;;;;;;;;;5074033;28;20341;-56
2021/03/23 11:23:46;;;;;;;7.00;5.10;;;;;;;;;;5073893;28;20271;-56
2021/03/23 11:26:13;;;;;;;7.72;5.10;;;;;;;;;;5074001;28;20257;-56
2021/03/23 11:28:40;;;;;;;6.80;4.67;;;;;;;;;;5073724;28;20032;-56
2021/03/23 11:31:08;;;;;;;7.83;4.37;;;;;;;;;;5073944;28;20256;-56
2021/03/23 11:33:36;;;;;;;11.13;4.93;;;;;;;;;;5073639;28;20269;-56
2021/03/23 11:36:04;;;;;;;9.53;4.40;;;;;;;;;;5073858;28;20265;-56
2021/03/23 11:38:31;;;;;;;6.40;4.67;;;;;;;;;;5073556;28;20246;-56
2021/03/23 11:40:59;;;;;;;7.33;4.90;;;;;;;;;;5074672;27;20721;-56
2021/03/23 11:43:32;;;;;;;5.97;4.50;;;;;;;;;;5073528;28;20253;-56
2021/03/23 11:46:02;;;;;;;8.60;5.23;;;;;;;;;;5073533;28;20253;-56
2021/03/23 11:48:34;;;;;;;6.67;4.70;;;;;;;;;;5073513;28;20263;-56
2021/03/23 11:51:01;;;;;;;12.40;5.27;;;;;;;;;;5073351;28;20308;-56
2021/03/23 11:53:28;;;;;;;9.47;5.27;;;;;;;;;;5073388;28;20269;-56
2021/03/23 11:55:55;;;;;;;8.80;5.17;;;;;;;;;;5073297;28;20274;-56
2021/03/23 11:58:23;;;;;;;8.20;5.57;;;;;;;;;;5073312;28;20732;-56
2021/03/23 12:00:49;;;;;;;7.43;4.97;;;;;;;;;;5072526;28;20261;-56
2021/03/23 12:03:16;;;;;;;8.07;5.73;;;;;;;;;;5073146;28;20248;-56
2021/03/23 12:05:43;;;;;;;12.23;5.83;;;;;;;;;;5073185;28;20262;-56
2021/03/23 12:08:16;;;;;;;11.10;5.37;;;;;;;;;;5073405;28;20277;-56
2021/03/23 12:10:49;;;;;;;17.67;6.17;;;;;;;;;;5073205;28;20262;-56
2021/03/23 12:13:16;;;;;;;11.03;5.70;;;;;;;;;;5072948;28;20520;-56
2021/03/23 12:16:01;;;;;;;6.73;4.77;;;;;;;;;;5072929;28;20279;-56
2021/03/23 12:18:29;;;;;;;8.30;5.35;;;;;;;;;;5072942;28;20254;-56
2021/03/23 12:20:59;;;;;;;11.77;5.10;;;;;;;;;;5072872;28;20035;-56
2021/03/23 12:23:27;;;;;;;9.73;5.57;;;;;;;;;;5072919;28;20329;-55
2021/03/23 12:25:55;;;;;;;9.07;5.80;;;;;;;;;;5072958;28;20257;-56
2021/03/23 12:28:22;;;;;;;12.27;5.93;;;;;;;;;;5072782;28;20245;-56
2021/03/23 12:30:49;;;;;;;8.67;5.50;;;;;;;;;;5072926;28;20256;-56
2021/03/23 12:33:16;;;;;;;12.07;5.30;;;;;;;;;;5072786;28;20418;-56
2021/03/23 12:35:42;;;;;;;12.73;5.67;;;;;;;;;;5072751;28;20703;-56
2021/03/23 12:38:11;;;;;;;9.60;5.20;;;;;;;;;;5072896;28;20268;-56
2021/03/23 12:40:38;;;;;;;8.07;5.43;;;;;;;;;;5073905;28;20281;-56
2021/03/23 12:43:12;;;;;;;17.20;7.23;;;;;;;;;;5073347;28;20265;-56
2021/03/23 12:45:40;;;;;;;12.33;6.30;;;;;;;;;;5072710;28;20245;-56
2021/03/23 12:48:08;;;;;;;10.30;6.00;;;;;;;;;;5072602;28;20758;-56
2021/03/23 12:50:35;;;;;;;12.40;5.80;;;;;;;;;;5072921;28;20597;-56
2021/03/23 12:53:03;;;;;;;9.47;5.53;;;;;;;;;;5072718;28;20424;-56
2021/03/23 12:55:31;;;;;;;16.27;6.23;;;;;;;;;;5072796;28;20269;-56
2021/03/23 12:58:00;;;;;;;14.53;5.50;;;;;;;;;;5072606;28;20280;-56
2021/03/23 13:00:28;;;;;;;12.13;6.23;;;;;;;;;;5072529;28;20266;-56
2021/03/23 13:02:55;;;;;;;12.13;6.10;;;;;;;;;;5072807;28;20284;-56
2021/03/23 13:05:23;;;;;;;12.53;5.97;;;;;;;;;;5072549;28;20261;-56
2021/03/23 13:07:52;;;;;;;12.67;7.20;;;;;;;;;;5072585;28;20257;-56
2021/03/23 13:10:33;;;;;;;11.33;6.03;;;;;;;;;;5072470;28;20277;-56
2021/03/23 13:13:01;;;;;;;10.00;6.40;;;;;;;;;;5075042;28;20340;-56
2021/03/23 13:15:28;;;;;;;12.43;6.87;;;;;;;;;;5076418;28;20732;-56
2021/03/23 13:17:55;;;;;;;9.07;6.20;;;;;;;;;;5076610;28;20328;-56
2021/03/23 13:20:22;;;;;;;12.17;7.13;;;;;;;;;;5076399;28;20334;-56
2021/03/23 13:22:51;;;;;;;11.97;6.83;;;;;;;;;;5076466;28;20257;-56
2021/03/23 13:25:38;;;;;;;12.87;7.87;;;;;;;;;;5076353;28;20297;-56
2021/03/23 13:28:25;;;;;;;19.47;7.10;;;;;;;;;;5076057;28;20254;-56
2021/03/23 13:30:51;;;;;;;12.80;7.50;;;;;;;;;;5035392;28;20253;-56
2021/03/23 13:33:18;;;;;;;13.50;7.90;;;;;;;;;;5076048;28;20280;-57
2021/03/23 13:35:46;;;;;;;14.80;6.87;;;;;;;;;;5076131;28;20272;-57
2021/03/23 13:38:17;;;;;;;16.97;8.97;;;;;;;;;;5075942;28;20628;-57
2021/03/23 13:40:46;;;;;;;16.47;9.27;;;;;;;;;;5076885;28;20293;-57
2021/03/23 13:43:19;;;;;;;13.43;8.70;;;;;;;;;;5075904;28;20387;-57
2021/03/23 13:45:50;;;;;;;16.77;7.67;;;;;;;;;;5057907;28;20031;-57
2021/03/23 13:48:22;;;;;;;13.20;6.90;;;;;;;;;;5075757;28;20027;-57
2021/03/23 13:50:49;;;;;;;11.27;6.70;;;;;;;;;;5075770;28;20016;-57
2021/03/23 13:53:18;;;;;;;13.77;6.70;;;;;;;;;;5075530;28;20028;-57
2021/03/23 13:55:45;;;;;;;12.37;7.40;;;;;;;;;;5075674;28;20430;-57
2021/03/23 13:58:13;;;;;;;7.60;5.87;;;;;;;;;;5075593;28;20025;-56
2021/03/23 14:00:43;;;;;;;9.37;5.93;;;;;;;;;;5075638;28;20360;-55
2021/03/23 14:03:10;;;;;;;14.03;6.00;;;;;;;;;;5075526;28;20042;-55
2021/03/23 14:05:37;;;;;;;10.43;5.87;;;;;;;;;;5075486;28;20472;-56
2021/03/23 14:08:09;;;;;;;13.67;6.10;;;;;;;;;;5075243;28;20438;-56
2021/03/23 14:10:36;;;;;;;8.73;6.00;;;;;;;;;;5075410;28;20032;-56
2021/03/23 14:13:03;;;;;;;8.17;5.40;;;;;;;;;;5075213;28;20025;-56
2021/03/23 14:15:29;;;;;;;10.43;5.60;;;;;;;;;;5075315;28;20104;-55
2021/03/23 14:17:57;;;;;;;10.33;5.50;;;;;;;;;;5075216;28;20074;-56
2021/03/23 14:20:25;;;;;;;14.23;6.00;;;;;;;;;;5075206;28;20475;-56
2021/03/23 14:22:53;;;;;;;8.20;5.93;;;;;;;;;;5074771;28;20025;-56
2021/03/23 14:25:23;;;;;;;11.83;6.70;;;;;;;;;;5074500;28;20078;-57
2021/03/23 14:27:49;;;;;;;14.70;5.60;;;;;;;;;;5075133;28;20379;-57
2021/03/23 14:30:17;;;;;;;11.03;5.40;;;;;;;;;;5075241;28;20033;-56
2021/03/23 14:32:45;;;;;;;8.77;5.37;;;;;;;;;;5074972;28;20028;-57
2021/03/23 14:35:13;;;;;;;7.63;6.00;;;;;;;;;;5074940;28;20024;-57
2021/03/23 14:37:42;;;;;;;10.67;5.80;;;;;;;;;;5074837;28;20151;-57
2021/03/23 14:40:29;;;;;;;7.40;5.13;;;;;;;;;;5076009;27;20106;-57
2021/03/23 14:42:59;;;;;;;14.87;6.03;;;;;;;;;;5074646;28;20025;-56
2021/03/23 14:45:26;;;;;;;12.10;6.30;;;;;;;;;;5074726;28;20489;-56
2021/03/23 14:47:52;;;;;;;12.27;6.20;;;;;;;;;;5074613;28;20029;-56
2021/03/23 14:50:19;;;;;;;11.63;6.50;;;;;;;;;;5074643;28;20037;-56
2021/03/23 14:52:47;;;;;;;11.73;7.17;;;;;;;;;;5074521;28;20028;-56
2021/03/23 14:55:24;;;;;;;16.33;8.10;;;;;;;;;;5074492;28;20462;-56
2021/03/23 14:57:51;;;;;;;15.83;7.27;;;;;;;;;;5074576;28;20219;-56